Time;durP1;ratioP1;P1;durP2;ratioP2;P2;SDS_P1;SDS_P2;PMS_P1;PMS_P2;Temp;Humidity;BMP_temperature;BMP_pressure;BME280_temperature;BME280_humidity;BME280_pressure;Samples;Min_cycle;Max_cycle;Signal;HPM_P1;HPM_P2
2022/12/20 00:01:57;;;;;;;31.70;24.87;;;1.60;99.90;;;;;;5108280;28;20259;-84
2022/12/20 00:04:23;;;;;;;29.13;23.97;;;1.50;99.90;;;;;;5110504;28;20215;-84
2022/12/20 00:06:48;;;;;;;28.33;24.90;;;1.60;99.90;;;;;;5111915;28;20191;-84
2022/12/20 00:09:14;;;;;;;26.23;22.40;;;1.60;99.90;;;;;;5111113;28;20221;-83
2022/12/20 00:11:40;;;;;;;24.60;20.27;;;1.50;99.90;;;;;;5111210;28;20194;-84
2022/12/20 00:14:07;;;;;;;26.83;22.27;;;1.50;99.90;;;;;;5110533;28;20183;-82
2022/12/20 00:16:34;;;;;;;24.53;22.00;;;1.60;99.90;;;;;;5111681;28;20212;-82
2022/12/20 00:19:03;;;;;;;23.33;20.87;;;1.60;99.90;;;;;;5109146;28;20377;-84
2022/12/20 00:21:30;;;;;;;25.50;22.33;;;1.50;99.90;;;;;;5092888;28;20585;-82
2022/12/20 00:23:57;;;;;;;24.83;21.53;;;1.60;99.90;;;;;;5109281;28;20183;-82
2022/12/20 00:26:27;;;;;;;26.13;22.17;;;1.80;99.90;;;;;;5110972;28;20198;-83
2022/12/20 00:28:53;;;;;;;25.40;22.80;;;1.90;99.90;;;;;;5109863;28;20206;-84
2022/12/20 00:31:20;;;;;;;25.80;21.63;;;1.80;99.90;;;;;;5110788;28;20218;-85
2022/12/20 00:33:48;;;;;;;26.50;22.27;;;1.70;99.90;;;;;;5110002;28;20190;-85
2022/12/20 00:36:15;;;;;;;25.43;20.70;;;1.60;99.90;;;;;;5110240;28;20236;-84
2022/12/20 00:38:47;;;;;;;23.00;20.53;;;1.60;99.90;;;;;;5109046;28;20234;-83
2022/12/20 00:41:15;;;;;;;27.43;21.80;;;1.60;99.90;;;;;;5105642;28;20183;-85
2022/12/20 00:43:41;;;;;;;23.20;20.73;;;1.70;99.90;;;;;;5110427;28;20194;-85
2022/12/20 00:46:08;;;;;;;22.17;19.83;;;1.70;99.90;;;;;;5110835;28;20723;-85
2022/12/20 00:48:35;;;;;;;21.83;19.53;;;1.60;99.90;;;;;;5107445;28;20225;-83
2022/12/20 00:51:03;;;;;;;23.40;20.87;;;1.60;99.90;;;;;;5108850;28;20266;-85
2022/12/20 00:53:29;;;;;;;22.50;19.80;;;1.60;99.90;;;;;;5106604;28;20190;-85
2022/12/20 00:55:55;;;;;;;26.20;20.03;;;1.60;99.90;;;;;;5107477;28;20294;-86
2022/12/20 00:58:21;;;;;;;26.27;20.73;;;1.60;99.90;;;;;;5110415;28;20203;-84
2022/12/20 01:00:47;;;;;;;23.90;19.57;;;1.70;99.90;;;;;;5106382;28;20203;-85
2022/12/20 01:03:13;;;;;;;23.93;21.20;;;1.70;99.90;;;;;;5110000;28;20344;-83
2022/12/20 01:05:39;;;;;;;22.87;20.50;;;2.00;99.90;;;;;;5106018;28;20841;-84
2022/12/20 01:08:05;;;;;;;22.83;20.23;;;2.00;99.90;;;;;;5091621;28;20635;-83
2022/12/20 01:10:31;;;;;;;23.83;21.23;;;2.00;99.90;;;;;;5109460;28;20232;-81
2022/12/20 01:12:57;;;;;;;24.23;20.60;;;2.00;99.90;;;;;;5108608;28;20183;-84
2022/12/20 01:15:23;;;;;;;23.70;20.60;;;1.90;99.90;;;;;;5109201;28;20183;-83
2022/12/20 01:17:50;;;;;;;22.50;19.60;;;1.90;99.90;;;;;;5110941;28;20186;-88
2022/12/20 01:20:16;;;;;;;24.40;20.13;;;1.90;99.90;;;;;;5113763;28;20198;-85
2022/12/20 01:22:41;;;;;;;22.83;20.07;;;1.80;99.90;;;;;;5114782;28;20225;-85
2022/12/20 01:25:07;;;;;;;21.50;19.03;;;1.70;99.90;;;;;;5112838;28;20233;-83
2022/12/20 01:27:33;;;;;;;21.93;19.63;;;1.60;99.90;;;;;;5104986;28;20195;-82
2022/12/20 01:29:58;;;;;;;20.73;18.53;;;1.70;99.90;;;;;;5105258;28;20201;-84
2022/12/20 01:32:24;;;;;;;20.67;18.57;;;1.70;99.90;;;;;;5110495;28;20183;-84
2022/12/20 01:34:49;;;;;;;23.90;19.83;;;1.60;99.90;;;;;;5091437;28;20194;-84
2022/12/20 01:37:15;;;;;;;21.77;18.97;;;1.60;99.90;;;;;;5109069;28;20221;-83
2022/12/20 01:39:41;;;;;;;20.50;18.37;;;1.80;99.90;;;;;;5110165;28;20238;-85
2022/12/20 01:42:13;;;;;;;21.23;18.87;;;1.60;99.90;;;;;;5103396;28;20187;-84
2022/12/20 01:44:42;;;;;;;22.47;19.63;;;1.80;99.90;;;;;;5108661;28;20230;-84
2022/12/20 01:47:09;;;;;;;19.93;17.73;;;1.70;99.90;;;;;;5106910;28;20225;-85
2022/12/20 01:49:43;;;;;;;21.30;18.57;;;1.60;99.90;;;;;;5108878;28;20213;-87
2022/12/20 01:52:17;;;;;;;20.43;17.60;;;1.70;99.90;;;;;;5108244;28;20179;-85
2022/12/20 01:54:48;;;;;;;18.77;16.70;;;1.60;99.90;;;;;;5106130;28;20197;-85
2022/12/20 01:57:19;;;;;;;21.97;17.83;;;1.50;99.90;;;;;;5109649;28;20197;-85
2022/12/20 01:59:49;;;;;;;19.93;17.43;;;1.50;99.90;;;;;;5105234;28;20238;-83
2022/12/20 02:02:15;;;;;;;18.70;16.70;;;1.50;99.90;;;;;;5109085;28;20179;-83
2022/12/20 02:04:41;;;;;;;20.17;17.47;;;1.70;99.90;;;;;;5109770;28;20270;-83
2022/12/20 02:07:12;;;;;;;19.03;17.03;;;1.70;99.90;;;;;;5108526;28;20220;-84
2022/12/20 02:09:38;;;;;;;17.57;15.67;;;1.60;99.90;;;;;;5109397;28;20199;-86
2022/12/20 02:12:16;;;;;;;18.63;16.40;;;1.50;99.90;;;;;;5109353;28;20179;-85
2022/12/20 02:15:08;;;;;;;17.97;16.17;;;1.50;99.90;;;;;;5105326;28;20210;-84
2022/12/20 02:17:55;;;;;;;19.07;17.07;;;1.50;99.90;;;;;;5101282;28;20210;-84
2022/12/20 02:20:32;;;;;;;18.53;16.63;;;1.50;99.90;;;;;;5107426;28;20217;-83
2022/12/20 02:23:10;;;;;;;20.57;17.47;;;1.50;99.90;;;;;;5106881;28;20198;-85
2022/12/20 02:26:23;;;;;;;18.93;16.37;;;1.60;99.90;;;;;;5108993;28;20234;-83
2022/12/20 02:29:14;;;;;;;16.97;15.20;;;1.60;99.90;;;;;;5066845;28;20305;-84
2022/12/20 02:32:05;;;;;;;17.37;15.57;;;1.70;99.90;;;;;;5109048;28;20191;-84
2022/12/20 02:34:34;;;;;;;17.57;15.80;;;1.70;99.90;;;;;;5107729;28;20190;-85
2022/12/20 02:36:59;;;;;;;18.30;16.40;;;1.70;99.90;;;;;;5108661;28;20195;-83
2022/12/20 02:39:28;;;;;;;18.97;16.50;;;1.70;99.90;;;;;;5104555;28;20235;-85
2022/12/20 02:42:00;;;;;;;17.03;15.33;;;1.60;99.90;;;;;;5105067;28;20183;-84
2022/12/20 02:47:20;;;;;;;17.63;15.73;;;1.60;99.90;;;;;;5105159;28;20221;-84
2022/12/20 02:49:48;;;;;;;18.83;16.67;;;1.80;99.90;;;;;;5099467;28;20211;-85
2022/12/20 02:52:16;;;;;;;17.30;15.47;;;1.80;99.90;;;;;;5106134;28;20202;-85
2022/12/20 02:54:42;;;;;;;18.80;16.80;;;1.70;99.90;;;;;;5105007;28;20262;-83
2022/12/20 02:57:12;;;;;;;19.30;17.30;;;1.60;99.90;;;;;;5107406;28;20186;-82
2022/12/20 02:59:56;;;;;;;18.30;16.40;;;1.60;99.90;;;;;;5098093;28;20588;-85
2022/12/20 03:02:23;;;;;;;20.20;16.73;;;1.50;99.90;;;;;;5105469;28;20212;-83
2022/12/20 03:04:50;;;;;;;18.07;16.17;;;1.50;99.90;;;;;;5090612;28;20232;-84
2022/12/20 03:07:16;;;;;;;16.63;14.90;;;1.60;99.90;;;;;;5105093;28;20175;-83
2022/12/20 03:09:44;;;;;;;16.87;15.23;;;1.70;99.90;;;;;;5093432;28;20217;-83
2022/12/20 03:12:11;;;;;;;19.93;17.93;;;1.70;99.90;;;;;;5104460;28;20195;-85
2022/12/20 03:14:38;;;;;;;17.73;15.00;;;1.70;99.90;;;;;;5108228;28;20194;-85
2022/12/20 03:17:05;;;;;;;16.87;15.07;;;1.60;99.90;;;;;;5106643;28;20187;-83
2022/12/20 03:19:30;;;;;;;20.47;17.13;;;1.60;99.90;;;;;;5107997;28;20210;-82
2022/12/20 03:21:57;;;;;;;18.27;15.13;;;1.50;99.90;;;;;;5108513;28;20197;-83
2022/12/20 03:24:22;;;;;;;20.13;16.70;;;1.40;99.90;;;;;;5090129;28;20191;-85
2022/12/20 03:26:48;;;;;;;16.97;15.10;;;1.40;99.90;;;;;;5107509;28;20191;-84
2022/12/20 03:29:13;;;;;;;17.27;15.27;;;1.50;99.90;;;;;;5107829;28;20211;-84
2022/12/20 03:31:39;;;;;;;16.27;14.67;;;1.50;99.90;;;;;;5108405;28;20183;-85
2022/12/20 03:34:05;;;;;;;18.43;16.53;;;1.50;99.90;;;;;;5108274;28;20222;-83
2022/12/20 03:36:31;;;;;;;18.13;16.33;;;1.50;99.90;;;;;;5108469;28;20203;-84
2022/12/20 03:38:58;;;;;;;16.43;14.77;;;1.50;99.90;;;;;;5091050;28;20217;-83
2022/12/20 03:41:24;;;;;;;19.97;17.17;;;1.50;99.90;;;;;;5110159;28;20232;-84
2022/12/20 03:43:49;;;;;;;18.87;15.97;;;1.50;99.90;;;;;;5111692;28;20186;-85
2022/12/20 03:46:16;;;;;;;19.90;16.93;;;1.50;99.90;;;;;;5110263;28;20209;-85
2022/12/20 03:48:41;;;;;;;17.77;15.97;;;1.60;99.90;;;;;;5107579;28;20214;-83
2022/12/20 03:51:07;;;;;;;18.77;16.57;;;1.60;99.90;;;;;;5110855;28;20210;-83
2022/12/20 03:53:33;;;;;;;18.37;16.47;;;1.70;99.90;;;;;;5111205;28;20202;-84
2022/12/20 03:55:59;;;;;;;20.27;18.07;;;1.80;99.90;;;;;;5107311;28;20253;-83
2022/12/20 03:58:24;;;;;;;21.33;17.87;;;1.70;99.90;;;;;;5111245;28;20209;-84
2022/12/20 04:00:50;;;;;;;24.30;20.57;;;1.60;99.90;;;;;;5108486;28;20254;-84
2022/12/20 04:03:16;;;;;;;21.80;19.37;;;1.60;99.90;;;;;;5108612;28;20242;-84
2022/12/20 04:05:42;;;;;;;20.80;18.60;;;1.70;99.90;;;;;;5109433;28;20207;-83
2022/12/20 04:08:07;;;;;;;20.50;16.40;;;1.60;99.90;;;;;;5110981;28;20210;-83
2022/12/20 04:11:14;;;;;;;17.97;16.03;;;1.70;99.90;;;;;;5111533;28;20191;-84
2022/12/20 04:13:18;;;;;;;20.63;16.20;;;1.80;99.90;;;;;;5111414;28;20197;-83
2022/12/20 04:15:44;;;;;;;19.63;17.63;;;1.80;99.90;;;;;;5111779;28;20191;-83
2022/12/20 04:18:10;;;;;;;21.03;17.60;;;1.70;99.90;;;;;;5111116;28;20286;-83
2022/12/20 04:20:35;;;;;;;18.07;16.17;;;1.70;99.90;;;;;;5109990;28;20190;-84
2022/12/20 04:23:01;;;;;;;16.70;15.00;;;1.70;99.90;;;;;;5110870;28;20195;-85
2022/12/20 04:25:26;;;;;;;18.07;16.30;;;1.70;99.90;;;;;;5102471;28;20359;-83
2022/12/20 04:27:52;;;;;;;17.17;15.20;;;1.60;99.90;;;;;;5109959;28;20243;-82
2022/12/20 04:30:18;;;;;;;17.47;15.57;;;1.70;99.90;;;;;;5109971;28;20186;-83
2022/12/20 04:32:43;;;;;;;17.40;15.63;;;1.80;99.90;;;;;;5108798;28;20206;-84
2022/12/20 04:35:09;;;;;;;17.57;15.70;;;1.70;99.90;;;;;;5104949;28;20194;-83
2022/12/20 04:37:35;;;;;;;16.23;13.80;;;1.70;99.90;;;;;;5107984;28;20187;-83
2022/12/20 04:40:01;;;;;;;24.27;17.70;;;1.70;99.90;;;;;;5110539;28;20254;-83
2022/12/20 04:42:26;;;;;;;17.60;15.30;;;1.70;99.90;;;;;;5112220;28;20304;-83
2022/12/20 04:44:52;;;;;;;19.33;16.87;;;1.70;99.90;;;;;;5108021;28;20234;-83
2022/12/20 04:47:18;;;;;;;19.27;16.90;;;1.70;99.90;;;;;;5110673;28;20183;-81
2022/12/20 04:49:43;;;;;;;19.03;17.07;;;1.70;99.90;;;;;;5109860;28;20215;-83
2022/12/20 04:54:53;;;;;;;17.50;15.60;;;1.60;99.90;;;;;;5109858;28;20233;-83
2022/12/20 04:57:19;;;;;;;16.13;14.43;;;1.60;99.90;;;;;;5093630;28;20186;-83
2022/12/20 04:59:45;;;;;;;17.10;15.43;;;1.60;99.90;;;;;;5099787;28;20198;-86
2022/12/20 05:02:10;;;;;;;17.37;14.77;;;1.80;99.90;;;;;;5110834;28;20213;-83
2022/12/20 05:04:36;;;;;;;18.23;16.40;;;1.70;99.90;;;;;;5114078;28;20187;-83
2022/12/20 05:07:02;;;;;;;21.70;17.70;;;1.90;99.90;;;;;;5110435;28;20254;-84
2022/12/20 05:09:27;;;;;;;21.87;19.63;;;1.80;99.90;;;;;;5112529;28;20252;-82
2022/12/20 05:11:53;;;;;;;22.90;18.20;;;1.70;99.90;;;;;;5103165;28;20197;-84
2022/12/20 05:14:18;;;;;;;21.57;18.73;;;1.70;99.90;;;;;;5099320;28;20190;-82
2022/12/20 05:16:44;;;;;;;18.77;16.77;;;1.70;99.90;;;;;;5100754;28;20183;-82
2022/12/20 05:19:10;;;;;;;22.63;20.17;;;1.60;99.90;;;;;;5101082;28;20262;-82
2022/12/20 05:27:04;;;;;;;22.93;20.60;;;1.70;99.90;;;;;;5102739;28;20186;-83
2022/12/20 05:29:30;;;;;;;20.93;18.73;;;1.70;99.90;;;;;;5103791;28;20195;-83
2022/12/20 05:31:55;;;;;;;27.30;24.50;;;1.70;99.90;;;;;;5099805;28;20193;-84
2022/12/20 05:34:21;;;;;;;32.57;29.17;;;1.90;99.90;;;;;;5098313;28;20186;-83
2022/12/20 05:36:46;;;;;;;26.93;24.23;;;1.90;99.90;;;;;;5105949;28;20186;-85
2022/12/20 05:39:13;;;;;;;24.10;21.47;;;1.90;99.90;;;;;;5108293;28;20245;-85
2022/12/20 05:41:39;;;;;;;21.77;19.57;;;2.00;99.90;;;;;;5106670;28;20184;-83
2022/12/20 05:44:05;;;;;;;25.63;22.93;;;1.80;99.90;;;;;;5106355;28;20183;-83
2022/12/20 05:46:31;;;;;;;21.37;19.20;;;1.90;99.90;;;;;;5103802;28;20253;-82
2022/12/20 05:48:56;;;;;;;23.50;21.03;;;1.80;99.90;;;;;;5107264;28;20202;-83
2022/12/20 05:51:22;;;;;;;26.37;23.77;;;1.80;99.90;;;;;;5105986;28;20204;-83
2022/12/20 05:53:48;;;;;;;24.87;22.47;;;1.90;99.90;;;;;;5105939;28;20202;-82
2022/12/20 05:56:13;;;;;;;25.47;22.97;;;1.90;99.90;;;;;;5105823;28;20197;-82
2022/12/20 05:58:39;;;;;;;22.03;19.87;;;1.90;99.90;;;;;;5102730;28;20210;-81
2022/12/20 06:01:07;;;;;;;19.27;17.37;;;1.90;99.90;;;;;;5103563;28;20201;-83
2022/12/20 06:03:32;;;;;;;18.50;16.60;;;2.00;99.90;;;;;;5103324;28;20215;-82
2022/12/20 06:05:58;;;;;;;19.67;17.67;;;2.00;99.90;;;;;;5106544;28;20199;-82
2022/12/20 06:08:24;;;;;;;19.60;17.50;;;2.00;99.90;;;;;;5106446;28;20262;-83
2022/12/20 06:10:50;;;;;;;18.90;17.00;;;2.10;99.90;;;;;;5106691;28;20186;-85
2022/12/20 06:13:17;;;;;;;18.93;17.03;;;2.00;99.90;;;;;;5101184;28;20190;-82
2022/12/20 06:15:43;;;;;;;22.87;20.80;;;2.00;99.90;;;;;;5106269;28;20187;-83
2022/12/20 06:18:10;;;;;;;21.60;19.40;;;2.10;99.90;;;;;;5106540;28;20279;-84
2022/12/20 06:20:36;;;;;;;22.30;19.80;;;2.00;99.90;;;;;;5106275;28;20258;-83
2022/12/20 06:23:02;;;;;;;20.60;18.40;;;1.90;99.90;;;;;;5104696;28;20187;-84
2022/12/20 06:25:29;;;;;;;20.07;17.93;;;2.00;99.90;;;;;;5107204;28;20269;-84
2022/12/20 06:27:55;;;;;;;20.97;18.50;;;2.00;99.90;;;;;;5105602;28;20214;-84
2022/12/20 06:30:21;;;;;;;19.23;17.20;;;2.00;99.90;;;;;;5086302;28;20184;-83
2022/12/20 06:32:47;;;;;;;18.33;16.20;;;2.00;99.90;;;;;;5107596;28;20175;-84
2022/12/20 06:35:13;;;;;;;19.07;16.93;;;2.00;99.90;;;;;;5106289;28;20186;-84
2022/12/20 06:37:40;;;;;;;19.33;17.37;;;2.20;99.90;;;;;;5101590;28;20203;-83
2022/12/20 06:40:08;;;;;;;20.50;18.20;;;2.20;99.90;;;;;;5103826;28;20216;-83
2022/12/20 06:42:33;;;;;;;19.90;17.90;;;2.10;99.90;;;;;;5110657;28;20186;-82
2022/12/20 06:44:59;;;;;;;19.50;17.43;;;2.00;99.90;;;;;;5106846;28;20217;-85
2022/12/20 06:47:25;;;;;;;21.40;19.23;;;2.10;99.90;;;;;;5110889;28;20193;-82
2022/12/20 06:49:50;;;;;;;20.97;18.77;;;2.00;99.90;;;;;;5106474;28;20616;-84
2022/12/20 06:52:16;;;;;;;21.40;19.20;;;2.00;99.90;;;;;;5105213;28;20186;-83
2022/12/20 06:54:41;;;;;;;21.77;19.47;;;2.00;99.90;;;;;;5105203;28;20242;-82
2022/12/20 06:57:07;;;;;;;21.13;19.03;;;2.00;99.90;;;;;;5103374;28;20191;-83
2022/12/20 06:59:34;;;;;;;20.73;18.57;;;1.90;99.90;;;;;;5106205;28;20207;-82
2022/12/20 07:01:59;;;;;;;22.40;17.80;;;2.10;99.90;;;;;;5102970;28;20194;-83
2022/12/20 07:04:25;;;;;;;20.20;18.10;;;2.20;99.90;;;;;;5102329;28;20218;-83
2022/12/20 07:06:51;;;;;;;19.10;14.10;;;2.20;99.90;;;;;;5087475;28;20190;-80
2022/12/20 07:09:16;;;;;;;16.50;14.80;;;2.20;99.90;;;;;;5102953;28;20700;-82
2022/12/20 07:11:42;;;;;;;19.13;17.10;;;2.20;99.90;;;;;;5105874;28;20175;-84
2022/12/20 07:14:07;;;;;;;17.73;15.60;;;2.30;99.90;;;;;;5106508;28;20183;-83
2022/12/20 07:16:34;;;;;;;21.83;18.40;;;2.20;99.90;;;;;;5108947;28;20204;-83
2022/12/20 07:19:00;;;;;;;17.53;15.83;;;2.50;99.90;;;;;;5109019;28;20206;-82
2022/12/20 07:21:26;;;;;;;17.77;15.83;;;2.50;99.90;;;;;;5110250;28;20212;-84
2022/12/20 07:23:53;;;;;;;17.80;15.90;;;2.50;99.90;;;;;;5109245;28;20222;-83
2022/12/20 07:26:19;;;;;;;18.57;16.57;;;2.40;99.90;;;;;;5104774;28;20232;-84
2022/12/20 07:28:44;;;;;;;18.83;16.83;;;2.30;99.90;;;;;;5109314;28;20207;-84
2022/12/20 07:31:10;;;;;;;18.80;16.43;;;2.20;99.90;;;;;;5109098;28;20290;-84
2022/12/20 07:33:36;;;;;;;18.10;16.17;;;2.10;99.90;;;;;;5102776;28;20197;-83
2022/12/20 07:36:03;;;;;;;18.70;16.50;;;2.10;99.90;;;;;;5106209;28;20190;-85
2022/12/20 07:38:29;;;;;;;20.20;17.00;;;2.10;99.90;;;;;;5109309;28;20210;-82
2022/12/20 07:40:54;;;;;;;19.27;15.10;;;2.10;99.90;;;;;;5107129;28;20179;-83
2022/12/20 07:43:20;;;;;;;17.57;15.77;;;2.20;99.90;;;;;;5105359;28;20217;-83
2022/12/20 07:45:46;;;;;;;17.83;15.93;;;2.10;99.90;;;;;;5109160;28;20293;-83
2022/12/20 07:48:12;;;;;;;19.20;17.27;;;2.10;99.90;;;;;;5108219;28;20195;-83
2022/12/20 07:50:39;;;;;;;19.17;17.17;;;2.20;99.90;;;;;;5109066;28;20183;-85
2022/12/20 07:53:06;;;;;;;19.00;16.77;;;2.20;99.90;;;;;;5109556;28;20703;-82
2022/12/20 07:55:32;;;;;;;19.50;17.10;;;2.40;99.90;;;;;;5108396;28;20178;-82
2022/12/20 07:58:03;;;;;;;17.70;15.87;;;2.40;99.90;;;;;;5106345;28;20193;-83
2022/12/20 08:00:30;;;;;;;17.20;15.43;;;2.50;99.90;;;;;;5108727;28;20190;-82
2022/12/20 08:03:11;;;;;;;20.33;17.10;;;2.50;99.90;;;;;;5109160;28;20269;-85
2022/12/20 08:05:42;;;;;;;18.70;16.70;;;2.60;99.90;;;;;;5109728;28;20258;-82
2022/12/20 08:08:08;;;;;;;20.40;16.80;;;2.60;99.90;;;;;;5104937;28;20205;-84
2022/12/20 08:10:36;;;;;;;17.97;16.07;;;2.70;99.90;;;;;;5108660;28;20183;-84
2022/12/20 08:13:03;;;;;;;19.30;16.43;;;2.70;99.90;;;;;;5108987;28;20191;-84
2022/12/20 08:15:29;;;;;;;17.70;15.83;;;2.70;99.90;;;;;;5106575;28;20187;-82
2022/12/20 08:17:55;;;;;;;18.27;16.47;;;2.70;99.90;;;;;;5108334;28;20187;-82
2022/12/20 08:20:20;;;;;;;18.27;16.40;;;2.60;99.90;;;;;;5104144;28;20206;-84
2022/12/20 08:22:46;;;;;;;20.23;18.27;;;2.60;99.90;;;;;;5107689;28;20183;-82
2022/12/20 08:25:12;;;;;;;20.70;17.30;;;2.80;99.90;;;;;;5107266;28;20217;-84
2022/12/20 08:27:37;;;;;;;19.80;17.80;;;2.90;99.90;;;;;;5107791;28;20711;-83
2022/12/20 08:30:07;;;;;;;20.03;17.97;;;2.80;99.90;;;;;;5108242;28;20214;-85
2022/12/20 08:32:33;;;;;;;19.97;17.77;;;2.80;99.90;;;;;;5107982;28;20193;-83
2022/12/20 08:34:58;;;;;;;17.77;16.07;;;2.90;99.90;;;;;;5107519;28;20511;-83
2022/12/20 08:37:24;;;;;;;17.70;15.97;;;2.90;99.90;;;;;;5108077;28;20191;-83
2022/12/20 08:39:50;;;;;;;18.93;16.97;;;3.00;99.90;;;;;;5109307;28;20202;-83
2022/12/20 08:42:15;;;;;;;18.57;16.60;;;3.00;99.90;;;;;;5107355;28;20194;-82
2022/12/20 08:44:41;;;;;;;18.50;15.97;;;3.00;99.90;;;;;;5106977;28;20217;-82
2022/12/20 08:47:07;;;;;;;18.10;16.30;;;3.00;99.90;;;;;;5108336;28;20187;-82
2022/12/20 08:49:32;;;;;;;18.53;16.63;;;3.10;99.90;;;;;;5104544;28;20230;-84
2022/12/20 08:51:58;;;;;;;23.10;18.90;;;3.30;99.90;;;;;;5108209;28;20186;-83
2022/12/20 08:54:23;;;;;;;19.67;17.50;;;3.40;99.90;;;;;;5108711;28;20193;-84
2022/12/20 08:56:49;;;;;;;21.00;18.90;;;3.30;99.90;;;;;;5106680;28;20194;-82
2022/12/20 08:59:15;;;;;;;22.87;19.20;;;3.20;99.90;;;;;;5105678;28;20282;-84
2022/12/20 09:01:40;;;;;;;21.37;19.27;;;3.10;99.90;;;;;;5110909;28;20198;-83
2022/12/20 09:04:06;;;;;;;20.10;18.20;;;3.10;99.90;;;;;;5110905;28;20193;-84
2022/12/20 09:06:34;;;;;;;20.63;18.13;;;3.30;99.90;;;;;;5109931;28;20214;-83
2022/12/20 09:09:00;;;;;;;20.10;17.90;;;3.50;99.90;;;;;;5110406;28;20209;-83
2022/12/20 09:11:26;;;;;;;19.90;17.80;;;3.40;99.90;;;;;;5109511;28;20232;-83
2022/12/20 09:13:54;;;;;;;20.17;18.17;;;3.30;99.90;;;;;;5110431;28;20235;-82
2022/12/20 09:16:23;;;;;;;19.43;17.57;;;3.50;99.90;;;;;;5104280;28;20213;-83
2022/12/20 09:18:54;;;;;;;20.70;17.67;;;3.40;99.90;;;;;;5107637;28;20195;-82
2022/12/20 09:21:21;;;;;;;19.53;17.60;;;3.50;99.90;;;;;;5108866;28;20199;-83
2022/12/20 09:23:49;;;;;;;21.37;17.73;;;3.60;99.90;;;;;;5110316;28;20248;-84
2022/12/20 09:26:16;;;;;;;19.13;17.17;;;3.60;99.90;;;;;;5107839;28;20202;-84
2022/12/20 09:28:43;;;;;;;18.77;16.77;;;3.50;99.90;;;;;;5108795;28;20220;-84
2022/12/20 09:31:12;;;;;;;19.00;17.03;;;3.50;99.90;;;;;;5109217;28;20209;-82
2022/12/20 09:33:38;;;;;;;20.00;17.10;;;3.50;99.90;;;;;;5108738;28;20193;-83
2022/12/20 09:36:04;;;;;;;18.27;16.47;;;3.40;99.90;;;;;;5109801;28;20235;-84
2022/12/20 09:38:31;;;;;;;19.37;17.37;;;3.50;99.90;;;;;;5105850;28;20206;-83
2022/12/20 09:41:00;;;;;;;20.13;17.60;;;3.50;99.90;;;;;;5109041;28;20179;-83
2022/12/20 09:43:26;;;;;;;20.10;17.90;;;3.70;99.90;;;;;;5106082;28;20675;-84
2022/12/20 09:45:56;;;;;;;20.33;18.17;;;3.60;99.90;;;;;;5105797;28;20315;-84
2022/12/20 09:48:30;;;;;;;18.97;17.17;;;3.60;99.90;;;;;;5087274;28;20209;-82
2022/12/20 09:51:17;;;;;;;19.03;17.13;;;3.80;99.90;;;;;;5107825;28;20178;-84
2022/12/20 09:53:52;;;;;;;20.23;18.23;;;3.90;99.90;;;;;;5108736;28;20238;-83
2022/12/20 09:56:26;;;;;;;18.80;17.03;;;4.00;99.90;;;;;;5109156;28;20190;-83
2022/12/20 09:58:59;;;;;;;18.87;16.97;;;3.90;99.90;;;;;;5108872;28;20218;-83
2022/12/20 10:01:28;;;;;;;19.87;17.87;;;4.00;99.90;;;;;;5093142;28;20191;-81
2022/12/20 10:03:56;;;;;;;16.23;14.67;;;4.10;99.90;;;;;;5110020;28;20222;-82
2022/12/20 10:06:22;;;;;;;15.60;14.20;;;4.10;99.90;;;;;;5101549;28;20293;-82
2022/12/20 10:09:00;;;;;;;15.07;13.67;;;4.30;99.90;;;;;;5108724;28;20214;-85
2022/12/20 10:11:32;;;;;;;15.33;13.83;;;4.30;99.90;;;;;;5089797;28;20187;-82
2022/12/20 10:14:16;;;;;;;15.20;13.60;;;4.40;99.90;;;;;;5086121;28;20197;-83
2022/12/20 10:16:48;;;;;;;14.87;13.43;;;4.50;99.90;;;;;;5106195;28;20189;-82
2022/12/20 10:19:23;;;;;;;14.77;13.27;;;4.60;99.90;;;;;;5103929;28;20210;-83
2022/12/20 10:22:12;;;;;;;16.73;14.60;;;4.40;99.90;;;;;;5106780;28;20346;-85
2022/12/20 10:24:39;;;;;;;16.20;14.60;;;4.30;99.90;;;;;;5104764;28;20193;-85
2022/12/20 10:27:15;;;;;;;15.53;14.10;;;4.40;99.90;;;;;;5106259;28;20235;-83
2022/12/20 10:29:41;;;;;;;16.03;14.37;;;4.50;99.90;;;;;;5107497;28;20733;-83
2022/12/20 10:32:17;;;;;;;17.87;13.53;;;4.60;99.90;;;;;;5110917;28;20179;-83
2022/12/20 10:34:56;;;;;;;15.20;13.80;;;4.70;99.90;;;;;;5112601;28;20289;-83
2022/12/20 10:37:21;;;;;;;16.00;13.00;;;4.80;99.90;;;;;;5111809;28;20183;-84
2022/12/20 10:39:49;;;;;;;14.63;13.10;;;5.00;99.90;;;;;;5105898;28;20320;-82
2022/12/20 10:42:37;;;;;;;14.73;12.83;;;5.10;99.90;;;;;;5107370;28;20221;-85
2022/12/20 10:45:17;;;;;;;13.40;12.10;;;5.30;99.90;;;;;;5085621;28;20236;-83
2022/12/20 10:47:45;;;;;;;13.80;12.50;;;5.40;99.90;;;;;;5105557;28;20273;-83
2022/12/20 10:50:22;;;;;;;14.33;12.83;;;5.30;99.90;;;;;;5107117;28;20221;-84
2022/12/20 10:53:09;;;;;;;14.50;13.00;;;5.30;99.90;;;;;;5106774;28;20182;-84
2022/12/20 10:55:38;;;;;;;14.80;13.00;;;5.10;99.90;;;;;;5105675;28;20178;-85
2022/12/20 10:58:12;;;;;;;18.50;14.30;;;5.00;99.90;;;;;;5104941;28;20217;-85
2022/12/20 11:00:38;;;;;;;15.93;14.33;;;4.90;99.90;;;;;;5086834;28;20232;-84
2022/12/20 11:03:24;;;;;;;15.33;13.73;;;4.90;99.90;;;;;;5107996;28;20179;-83
2022/12/20 11:06:02;;;;;;;15.90;14.30;;;5.00;99.90;;;;;;5106954;28;20214;-84
2022/12/20 11:08:32;;;;;;;21.13;15.07;;;5.00;99.90;;;;;;5104108;28;20252;-83
2022/12/20 11:11:24;;;;;;;16.73;14.40;;;5.00;99.90;;;;;;5103024;28;20718;-83
2022/12/20 11:13:51;;;;;;;16.00;13.90;;;5.20;99.90;;;;;;5100308;28;20254;-83
2022/12/20 11:16:36;;;;;;;15.83;14.23;;;5.10;99.90;;;;;;5103329;28;20179;-82
2022/12/20 11:19:05;;;;;;;17.33;14.63;;;5.10;99.90;;;;;;5101212;28;20278;-81
2022/12/20 11:21:58;;;;;;;18.20;14.80;;;5.20;99.90;;;;;;5102940;28;20206;-82
2022/12/20 11:24:54;;;;;;;14.80;13.30;;;5.30;99.90;;;;;;5103913;28;20183;-84
2022/12/20 11:27:23;;;;;;;18.70;14.37;;;5.40;99.90;;;;;;5104952;28;20175;-82
2022/12/20 11:30:10;;;;;;;15.63;14.13;;;5.50;99.90;;;;;;5104964;28;20207;-85
2022/12/20 11:32:53;;;;;;;14.90;13.40;;;5.50;99.90;;;;;;5105268;28;20187;-81
2022/12/20 11:35:27;;;;;;;15.80;14.30;;;5.70;99.90;;;;;;5105265;28;20171;-84
2022/12/20 11:38:18;;;;;;;16.87;15.07;;;5.70;99.90;;;;;;5105148;28;20190;-83
2022/12/20 11:40:54;;;;;;;16.70;14.40;;;5.80;99.90;;;;;;5104126;28;20261;-82
2022/12/20 11:43:48;;;;;;;16.17;14.57;;;5.70;99.90;;;;;;5102370;28;20201;-82
2022/12/20 11:46:21;;;;;;;20.43;16.30;;;5.70;99.90;;;;;;5103384;28;20293;-82
2022/12/20 11:49:07;;;;;;;17.20;15.47;;;5.60;99.90;;;;;;5104968;28;20218;-84
2022/12/20 11:51:38;;;;;;;18.27;15.20;;;5.60;99.90;;;;;;5102441;28;20226;-83
2022/12/20 11:54:36;;;;;;;18.00;16.13;;;5.50;99.90;;;;;;5101041;28;20223;-82
2022/12/20 11:57:12;;;;;;;16.97;15.33;;;5.50;99.90;;;;;;5089175;28;20187;-78
2022/12/20 11:59:49;;;;;;;16.67;14.97;;;5.50;99.90;;;;;;5102390;28;20231;-83
2022/12/20 12:02:27;;;;;;;17.90;16.20;;;5.40;99.90;;;;;;5103962;28;20203;-81
2022/12/20 12:04:58;;;;;;;18.50;16.20;;;5.40;99.90;;;;;;5108202;28;20214;-83
2022/12/20 12:07:32;;;;;;;19.73;17.77;;;5.60;99.90;;;;;;5101116;28;20198;-83
2022/12/20 12:10:24;;;;;;;20.17;18.17;;;5.80;99.90;;;;;;5087233;28;20219;-83
2022/12/20 12:13:17;;;;;;;29.10;26.23;;;6.00;99.90;;;;;;5090050;28;20222;-83
2022/12/20 12:16:04;;;;;;;34.00;30.60;;;6.00;99.90;;;;;;5092861;28;20241;-82
2022/12/20 12:18:32;;;;;;;33.93;30.33;;;5.90;99.90;;;;;;5095120;28;20215;-84
2022/12/20 12:21:07;;;;;;;25.47;22.70;;;5.90;99.90;;;;;;5090889;28;20202;-83
2022/12/20 12:23:55;;;;;;;20.70;18.60;;;5.80;99.90;;;;;;5093573;28;20201;-85
2022/12/20 12:26:25;;;;;;;20.37;18.10;;;5.70;99.90;;;;;;5084479;28;20255;-81
2022/12/20 12:28:57;;;;;;;19.07;17.13;;;5.70;99.90;;;;;;5094392;28;20234;-83
2022/12/20 12:31:40;;;;;;;18.73;16.80;;;5.70;99.90;;;;;;5091251;28;20679;-84
2022/12/20 12:34:15;;;;;;;18.80;16.90;;;5.80;99.90;;;;;;5092272;28;20222;-83
2022/12/20 12:37:21;;;;;;;20.10;18.10;;;5.90;99.90;;;;;;5094749;28;20199;-82
2022/12/20 12:40:15;;;;;;;19.77;17.33;;;6.00;99.90;;;;;;5077287;28;20206;-83
2022/12/20 12:43:18;;;;;;;21.80;18.97;;;5.80;99.90;;;;;;5079127;28;20211;-83
2022/12/20 12:45:54;;;;;;;19.40;17.40;;;5.90;99.90;;;;;;5097230;28;20240;-84
2022/12/20 12:48:40;;;;;;;17.20;15.43;;;5.90;99.90;;;;;;5104133;28;20218;-82
2022/12/20 12:51:07;;;;;;;19.07;17.17;;;5.90;99.90;;;;;;5098826;28;20200;-84
2022/12/20 12:53:45;;;;;;;19.83;17.73;;;5.80;99.90;;;;;;5096629;28;20235;-83
2022/12/20 12:56:26;;;;;;;20.27;17.50;;;6.00;99.90;;;;;;5084016;28;20211;-82
2022/12/20 12:59:08;;;;;;;27.50;22.30;;;6.00;99.90;;;;;;5082115;28;20308;-83
2022/12/20 13:01:55;;;;;;;22.37;20.10;;;6.00;99.90;;;;;;5085497;28;20222;-84